sensor_id;sensor_type;location;lat;lon;timestamp;P1;durP1;ratioP1;P2;durP2;ratioP2
47429;SDS011;33181;49.246;7.372;2022-07-06T00:00:38;5.03;;;4.13;;
47429;SDS011;33181;49.246;7.372;2022-07-06T00:03:03;8.27;;;5.77;;
47429;SDS011;33181;49.246;7.372;2022-07-06T00:05:29;11.03;;;5.70;;
47429;SDS011;33181;49.246;7.372;2022-07-06T00:07:55;5.53;;;4.53;;
47429;SDS011;33181;49.246;7.372;2022-07-06T00:10:21;7.57;;;4.60;;
47429;SDS011;33181;49.246;7.372;2022-07-06T00:12:46;6.93;;;4.37;;
47429;SDS011;33181;49.246;7.372;2022-07-06T00:15:12;5.27;;;4.77;;
47429;SDS011;33181;49.246;7.372;2022-07-06T00:17:38;11.30;;;4.80;;
47429;SDS011;33181;49.246;7.372;2022-07-06T00:20:03;6.00;;;4.40;;
47429;SDS011;33181;49.246;7.372;2022-07-06T00:22:30;7.00;;;4.73;;
47429;SDS011;33181;49.246;7.372;2022-07-06T00:24:56;8.23;;;4.70;;
47429;SDS011;33181;49.246;7.372;2022-07-06T00:27:21;4.83;;;4.37;;
47429;SDS011;33181;49.246;7.372;2022-07-06T00:29:47;5.80;;;4.27;;
47429;SDS011;33181;49.246;7.372;2022-07-06T00:32:13;7.77;;;5.10;;
47429;SDS011;33181;49.246;7.372;2022-07-06T00:34:39;4.80;;;4.20;;
47429;SDS011;33181;49.246;7.372;2022-07-06T00:37:05;5.83;;;4.53;;
47429;SDS011;33181;49.246;7.372;2022-07-06T00:39:32;6.77;;;4.60;;
47429;SDS011;33181;49.246;7.372;2022-07-06T00:41:58;5.83;;;3.90;;
47429;SDS011;33181;49.246;7.372;2022-07-06T00:44:24;7.50;;;4.53;;
47429;SDS011;33181;49.246;7.372;2022-07-06T00:46:50;8.53;;;4.97;;
47429;SDS011;33181;49.246;7.372;2022-07-06T00:49:17;5.50;;;4.20;;
47429;SDS011;33181;49.246;7.372;2022-07-06T00:52:08;6.20;;;4.13;;
47429;SDS011;33181;49.246;7.372;2022-07-06T00:54:35;5.40;;;4.43;;
47429;SDS011;33181;49.246;7.372;2022-07-06T00:57:01;7.63;;;5.30;;
47429;SDS011;33181;49.246;7.372;2022-07-06T00:59:28;7.90;;;4.67;;
47429;SDS011;33181;49.246;7.372;2022-07-06T01:01:54;4.93;;;3.90;;
47429;SDS011;33181;49.246;7.372;2022-07-06T01:04:19;6.07;;;4.10;;
47429;SDS011;33181;49.246;7.372;2022-07-06T01:06:45;7.70;;;4.77;;
47429;SDS011;33181;49.246;7.372;2022-07-06T01:09:12;4.73;;;4.03;;
47429;SDS011;33181;49.246;7.372;2022-07-06T01:11:38;9.23;;;4.90;;
47429;SDS011;33181;49.246;7.372;2022-07-06T01:14:04;5.30;;;4.80;;
47429;SDS011;33181;49.246;7.372;2022-07-06T01:16:30;5.80;;;4.70;;
47429;SDS011;33181;49.246;7.372;2022-07-06T01:18:57;6.07;;;4.47;;
47429;SDS011;33181;49.246;7.372;2022-07-06T01:21:22;5.80;;;4.00;;
47429;SDS011;33181;49.246;7.372;2022-07-06T01:23:48;4.53;;;3.93;;
47429;SDS011;33181;49.246;7.372;2022-07-06T01:26:15;5.57;;;4.30;;
47429;SDS011;33181;49.246;7.372;2022-07-06T01:28:44;6.63;;;4.30;;
47429;SDS011;33181;49.246;7.372;2022-07-06T01:31:14;5.17;;;4.00;;
47429;SDS011;33181;49.246;7.372;2022-07-06T01:33:45;5.80;;;4.80;;
47429;SDS011;33181;49.246;7.372;2022-07-06T01:36:11;5.77;;;3.90;;
47429;SDS011;33181;49.246;7.372;2022-07-06T01:38:44;7.60;;;3.77;;
47429;SDS011;33181;49.246;7.372;2022-07-06T01:41:15;5.00;;;4.50;;
47429;SDS011;33181;49.246;7.372;2022-07-06T01:43:42;4.90;;;4.40;;
47429;SDS011;33181;49.246;7.372;2022-07-06T01:46:08;4.97;;;4.47;;
47429;SDS011;33181;49.246;7.372;2022-07-06T01:48:35;4.83;;;4.30;;
47429;SDS011;33181;49.246;7.372;2022-07-06T01:51:01;4.77;;;3.97;;
47429;SDS011;33181;49.246;7.372;2022-07-06T01:53:28;4.57;;;4.00;;
47429;SDS011;33181;49.246;7.372;2022-07-06T01:55:54;6.83;;;4.10;;
47429;SDS011;33181;49.246;7.372;2022-07-06T01:58:20;7.60;;;4.10;;
47429;SDS011;33181;49.246;7.372;2022-07-06T02:00:47;8.57;;;4.07;;
47429;SDS011;33181;49.246;7.372;2022-07-06T02:03:12;5.03;;;3.90;;
47429;SDS011;33181;49.246;7.372;2022-07-06T02:05:38;10.40;;;4.70;;
47429;SDS011;33181;49.246;7.372;2022-07-06T02:08:04;9.57;;;4.93;;
47429;SDS011;33181;49.246;7.372;2022-07-06T02:10:30;7.00;;;4.47;;
47429;SDS011;33181;49.246;7.372;2022-07-06T02:12:55;4.60;;;4.20;;
47429;SDS011;33181;49.246;7.372;2022-07-06T02:15:21;7.30;;;4.93;;
47429;SDS011;33181;49.246;7.372;2022-07-06T02:17:47;5.53;;;4.47;;
47429;SDS011;33181;49.246;7.372;2022-07-06T02:20:13;5.13;;;4.63;;
47429;SDS011;33181;49.246;7.372;2022-07-06T02:22:38;6.47;;;4.03;;
47429;SDS011;33181;49.246;7.372;2022-07-06T02:25:04;4.40;;;4.00;;
47429;SDS011;33181;49.246;7.372;2022-07-06T02:27:30;5.17;;;3.90;;
47429;SDS011;33181;49.246;7.372;2022-07-06T02:29:56;6.00;;;4.20;;
47429;SDS011;33181;49.246;7.372;2022-07-06T02:32:22;5.80;;;4.40;;
47429;SDS011;33181;49.246;7.372;2022-07-06T02:34:48;5.10;;;4.43;;
47429;SDS011;33181;49.246;7.372;2022-07-06T02:37:14;4.97;;;4.47;;
47429;SDS011;33181;49.246;7.372;2022-07-06T02:39:39;4.80;;;4.07;;
47429;SDS011;33181;49.246;7.372;2022-07-06T02:42:05;7.20;;;3.83;;
47429;SDS011;33181;49.246;7.372;2022-07-06T02:44:31;4.40;;;4.00;;
47429;SDS011;33181;49.246;7.372;2022-07-06T02:46:57;5.50;;;4.77;;
47429;SDS011;33181;49.246;7.372;2022-07-06T02:49:22;6.60;;;4.70;;
47429;SDS011;33181;49.246;7.372;2022-07-06T02:51:48;5.63;;;4.37;;
47429;SDS011;33181;49.246;7.372;2022-07-06T02:54:14;5.23;;;4.30;;
47429;SDS011;33181;49.246;7.372;2022-07-06T02:56:39;12.70;;;4.70;;
47429;SDS011;33181;49.246;7.372;2022-07-06T02:59:05;6.50;;;4.90;;
47429;SDS011;33181;49.246;7.372;2022-07-06T03:01:31;7.63;;;4.90;;
47429;SDS011;33181;49.246;7.372;2022-07-06T03:03:56;7.00;;;5.20;;
47429;SDS011;33181;49.246;7.372;2022-07-06T03:06:22;6.60;;;4.93;;
47429;SDS011;33181;49.246;7.372;2022-07-06T03:08:48;7.40;;;5.50;;
47429;SDS011;33181;49.246;7.372;2022-07-06T03:11:14;5.80;;;5.00;;
47429;SDS011;33181;49.246;7.372;2022-07-06T03:13:39;5.37;;;4.87;;
47429;SDS011;33181;49.246;7.372;2022-07-06T03:16:05;6.57;;;4.73;;
47429;SDS011;33181;49.246;7.372;2022-07-06T03:18:31;6.43;;;4.90;;
47429;SDS011;33181;49.246;7.372;2022-07-06T03:20:57;4.87;;;4.20;;
47429;SDS011;33181;49.246;7.372;2022-07-06T03:23:22;4.97;;;4.43;;
47429;SDS011;33181;49.246;7.372;2022-07-06T03:25:48;5.93;;;4.70;;
47429;SDS011;33181;49.246;7.372;2022-07-06T03:28:14;4.23;;;3.83;;
47429;SDS011;33181;49.246;7.372;2022-07-06T03:30:40;5.33;;;4.20;;
47429;SDS011;33181;49.246;7.372;2022-07-06T03:33:05;6.77;;;5.07;;
47429;SDS011;33181;49.246;7.372;2022-07-06T03:35:31;5.47;;;4.37;;
47429;SDS011;33181;49.246;7.372;2022-07-06T03:37:57;5.00;;;4.30;;
47429;SDS011;33181;49.246;7.372;2022-07-06T03:40:23;4.77;;;4.20;;
47429;SDS011;33181;49.246;7.372;2022-07-06T03:42:48;10.10;;;4.87;;
47429;SDS011;33181;49.246;7.372;2022-07-06T03:45:14;4.97;;;4.47;;
47429;SDS011;33181;49.246;7.372;2022-07-06T03:47:40;4.80;;;4.30;;
47429;SDS011;33181;49.246;7.372;2022-07-06T03:50:06;5.30;;;4.40;;
47429;SDS011;33181;49.246;7.372;2022-07-06T03:52:33;6.20;;;4.20;;
47429;SDS011;33181;49.246;7.372;2022-07-06T03:55:04;4.63;;;4.20;;
47429;SDS011;33181;49.246;7.372;2022-07-06T03:57:39;6.17;;;4.60;;
47429;SDS011;33181;49.246;7.372;2022-07-06T04:00:06;7.47;;;4.10;;
47429;SDS011;33181;49.246;7.372;2022-07-06T04:02:33;5.30;;;4.43;;
47429;SDS011;33181;49.246;7.372;2022-07-06T04:04:59;6.60;;;4.00;;
47429;SDS011;33181;49.246;7.372;2022-07-06T04:07:25;4.73;;;4.33;;
47429;SDS011;33181;49.246;7.372;2022-07-06T04:09:51;6.77;;;4.90;;
47429;SDS011;33181;49.246;7.372;2022-07-06T04:12:17;8.00;;;4.90;;
47429;SDS011;33181;49.246;7.372;2022-07-06T04:14:43;5.27;;;3.93;;
47429;SDS011;33181;49.246;7.372;2022-07-06T04:17:09;4.60;;;4.10;;
47429;SDS011;33181;49.246;7.372;2022-07-06T04:19:53;4.80;;;4.10;;
47429;SDS011;33181;49.246;7.372;2022-07-06T04:22:19;6.43;;;4.00;;
47429;SDS011;33181;49.246;7.372;2022-07-06T04:24:44;6.83;;;3.80;;
47429;SDS011;33181;49.246;7.372;2022-07-06T04:27:10;4.20;;;3.53;;
47429;SDS011;33181;49.246;7.372;2022-07-06T04:29:36;4.10;;;3.60;;
47429;SDS011;33181;49.246;7.372;2022-07-06T04:32:02;4.50;;;3.57;;
47429;SDS011;33181;49.246;7.372;2022-07-06T04:34:28;7.60;;;3.37;;
47429;SDS011;33181;49.246;7.372;2022-07-06T04:36:53;9.63;;;3.87;;
47429;SDS011;33181;49.246;7.372;2022-07-06T04:39:19;5.17;;;3.87;;
47429;SDS011;33181;49.246;7.372;2022-07-06T04:41:45;4.93;;;3.50;;
47429;SDS011;33181;49.246;7.372;2022-07-06T04:44:11;5.23;;;3.80;;
47429;SDS011;33181;49.246;7.372;2022-07-06T04:46:37;6.67;;;3.43;;
47429;SDS011;33181;49.246;7.372;2022-07-06T04:49:02;4.20;;;3.80;;
47429;SDS011;33181;49.246;7.372;2022-07-06T04:51:28;4.10;;;3.60;;
47429;SDS011;33181;49.246;7.372;2022-07-06T04:53:54;3.83;;;3.20;;
47429;SDS011;33181;49.246;7.372;2022-07-06T04:56:19;8.37;;;3.63;;
47429;SDS011;33181;49.246;7.372;2022-07-06T04:58:46;6.20;;;3.60;;
47429;SDS011;33181;49.246;7.372;2022-07-06T05:01:11;7.13;;;3.00;;
47429;SDS011;33181;49.246;7.372;2022-07-06T05:03:37;5.17;;;3.60;;
47429;SDS011;33181;49.246;7.372;2022-07-06T05:06:06;7.50;;;3.17;;
47429;SDS011;33181;49.246;7.372;2022-07-06T05:08:33;3.67;;;3.17;;
47429;SDS011;33181;49.246;7.372;2022-07-06T05:10:59;3.13;;;2.70;;
47429;SDS011;33181;49.246;7.372;2022-07-06T05:13:25;5.07;;;2.70;;
47429;SDS011;33181;49.246;7.372;2022-07-06T05:15:51;5.50;;;2.87;;
47429;SDS011;33181;49.246;7.372;2022-07-06T05:18:17;3.77;;;2.80;;
47429;SDS011;33181;49.246;7.372;2022-07-06T05:20:42;3.33;;;2.70;;
47429;SDS011;33181;49.246;7.372;2022-07-06T05:23:09;5.10;;;2.87;;
47429;SDS011;33181;49.246;7.372;2022-07-06T05:25:35;4.00;;;2.73;;
47429;SDS011;33181;49.246;7.372;2022-07-06T05:28:02;4.73;;;2.70;;
47429;SDS011;33181;49.246;7.372;2022-07-06T05:30:28;6.30;;;3.20;;
47429;SDS011;33181;49.246;7.372;2022-07-06T05:32:54;4.60;;;2.93;;
47429;SDS011;33181;49.246;7.372;2022-07-06T05:35:19;3.13;;;2.80;;
47429;SDS011;33181;49.246;7.372;2022-07-06T05:37:45;4.17;;;2.80;;
47429;SDS011;33181;49.246;7.372;2022-07-06T05:40:11;3.70;;;2.60;;
47429;SDS011;33181;49.246;7.372;2022-07-06T05:42:37;6.03;;;2.67;;
47429;SDS011;33181;49.246;7.372;2022-07-06T05:45:03;3.73;;;2.73;;
47429;SDS011;33181;49.246;7.372;2022-07-06T05:47:30;3.70;;;2.73;;
47429;SDS011;33181;49.246;7.372;2022-07-06T05:50:14;4.00;;;2.80;;
47429;SDS011;33181;49.246;7.372;2022-07-06T05:52:40;6.07;;;2.63;;
47429;SDS011;33181;49.246;7.372;2022-07-06T05:55:10;4.90;;;2.60;;
47429;SDS011;33181;49.246;7.372;2022-07-06T05:57:37;3.60;;;2.50;;
47429;SDS011;33181;49.246;7.372;2022-07-06T06:00:05;8.03;;;2.90;;
47429;SDS011;33181;49.246;7.372;2022-07-06T06:02:41;4.10;;;2.73;;
47429;SDS011;33181;49.246;7.372;2022-07-06T06:05:08;5.83;;;3.00;;
47429;SDS011;33181;49.246;7.372;2022-07-06T06:07:36;3.93;;;2.70;;
47429;SDS011;33181;49.246;7.372;2022-07-06T06:10:07;5.27;;;3.00;;
47429;SDS011;33181;49.246;7.372;2022-07-06T06:12:34;3.40;;;3.00;;
47429;SDS011;33181;49.246;7.372;2022-07-06T06:15:01;3.13;;;2.50;;
47429;SDS011;33181;49.246;7.372;2022-07-06T06:17:27;3.17;;;2.47;;
47429;SDS011;33181;49.246;7.372;2022-07-06T06:19:53;4.50;;;2.80;;
47429;SDS011;33181;49.246;7.372;2022-07-06T06:22:19;4.80;;;3.30;;
47429;SDS011;33181;49.246;7.372;2022-07-06T06:24:45;4.87;;;2.70;;
47429;SDS011;33181;49.246;7.372;2022-07-06T06:27:11;3.93;;;3.03;;
47429;SDS011;33181;49.246;7.372;2022-07-06T06:29:37;3.77;;;2.90;;
47429;SDS011;33181;49.246;7.372;2022-07-06T06:32:03;4.90;;;2.77;;
47429;SDS011;33181;49.246;7.372;2022-07-06T06:34:30;4.80;;;2.63;;
47429;SDS011;33181;49.246;7.372;2022-07-06T06:36:57;4.33;;;2.60;;
47429;SDS011;33181;49.246;7.372;2022-07-06T06:39:23;3.80;;;2.70;;
47429;SDS011;33181;49.246;7.372;2022-07-06T06:41:48;4.63;;;2.80;;
47429;SDS011;33181;49.246;7.372;2022-07-06T06:44:14;6.90;;;2.73;;
47429;SDS011;33181;49.246;7.372;2022-07-06T06:46:40;6.23;;;2.90;;
47429;SDS011;33181;49.246;7.372;2022-07-06T06:49:06;2.90;;;2.60;;
47429;SDS011;33181;49.246;7.372;2022-07-06T06:51:32;3.80;;;2.90;;
47429;SDS011;33181;49.246;7.372;2022-07-06T06:53:58;3.50;;;2.30;;
47429;SDS011;33181;49.246;7.372;2022-07-06T06:56:24;4.50;;;3.30;;
47429;SDS011;33181;49.246;7.372;2022-07-06T06:58:50;4.83;;;3.03;;
47429;SDS011;33181;49.246;7.372;2022-07-06T07:01:16;4.17;;;2.77;;
47429;SDS011;33181;49.246;7.372;2022-07-06T07:03:42;4.90;;;2.93;;
47429;SDS011;33181;49.246;7.372;2022-07-06T07:06:07;7.13;;;3.00;;
47429;SDS011;33181;49.246;7.372;2022-07-06T07:08:33;8.10;;;4.10;;
47429;SDS011;33181;49.246;7.372;2022-07-06T07:10:59;3.67;;;2.70;;
47429;SDS011;33181;49.246;7.372;2022-07-06T07:13:24;5.57;;;3.10;;
47429;SDS011;33181;49.246;7.372;2022-07-06T07:15:50;4.13;;;2.50;;
47429;SDS011;33181;49.246;7.372;2022-07-06T07:18:16;5.17;;;2.70;;
47429;SDS011;33181;49.246;7.372;2022-07-06T07:20:42;6.80;;;2.93;;
47429;SDS011;33181;49.246;7.372;2022-07-06T07:23:07;5.67;;;2.80;;
47429;SDS011;33181;49.246;7.372;2022-07-06T07:25:33;3.83;;;2.80;;
47429;SDS011;33181;49.246;7.372;2022-07-06T07:27:59;4.20;;;2.77;;
47429;SDS011;33181;49.246;7.372;2022-07-06T07:30:25;4.87;;;3.07;;
47429;SDS011;33181;49.246;7.372;2022-07-06T07:32:51;4.90;;;2.97;;
47429;SDS011;33181;49.246;7.372;2022-07-06T07:35:17;3.30;;;2.50;;
47429;SDS011;33181;49.246;7.372;2022-07-06T07:37:42;3.40;;;2.80;;
47429;SDS011;33181;49.246;7.372;2022-07-06T07:40:08;5.70;;;2.97;;
47429;SDS011;33181;49.246;7.372;2022-07-06T07:42:34;4.40;;;2.93;;
47429;SDS011;33181;49.246;7.372;2022-07-06T07:45:00;6.33;;;3.50;;
47429;SDS011;33181;49.246;7.372;2022-07-06T07:47:26;3.33;;;2.77;;
47429;SDS011;33181;49.246;7.372;2022-07-06T07:49:52;4.33;;;2.80;;
47429;SDS011;33181;49.246;7.372;2022-07-06T07:52:18;6.73;;;2.67;;
47429;SDS011;33181;49.246;7.372;2022-07-06T07:54:43;4.10;;;3.00;;
47429;SDS011;33181;49.246;7.372;2022-07-06T07:57:09;3.53;;;2.50;;
47429;SDS011;33181;49.246;7.372;2022-07-06T07:59:35;5.70;;;2.83;;
47429;SDS011;33181;49.246;7.372;2022-07-06T08:02:01;3.80;;;2.80;;
47429;SDS011;33181;49.246;7.372;2022-07-06T08:04:26;4.33;;;2.60;;
47429;SDS011;33181;49.246;7.372;2022-07-06T08:06:52;3.07;;;2.37;;
47429;SDS011;33181;49.246;7.372;2022-07-06T08:09:18;5.23;;;2.93;;
47429;SDS011;33181;49.246;7.372;2022-07-06T08:11:44;5.07;;;2.70;;
47429;SDS011;33181;49.246;7.372;2022-07-06T08:14:10;4.40;;;2.83;;
47429;SDS011;33181;49.246;7.372;2022-07-06T08:16:36;6.67;;;2.70;;
47429;SDS011;33181;49.246;7.372;2022-07-06T08:19:02;4.37;;;2.83;;
47429;SDS011;33181;49.246;7.372;2022-07-06T08:21:28;4.60;;;2.70;;
47429;SDS011;33181;49.246;7.372;2022-07-06T08:23:54;5.00;;;2.60;;
47429;SDS011;33181;49.246;7.372;2022-07-06T08:26:20;3.83;;;2.77;;
47429;SDS011;33181;49.246;7.372;2022-07-06T08:28:47;6.10;;;3.23;;
47429;SDS011;33181;49.246;7.372;2022-07-06T08:31:12;3.67;;;3.00;;
47429;SDS011;33181;49.246;7.372;2022-07-06T08:33:38;6.70;;;2.93;;
47429;SDS011;33181;49.246;7.372;2022-07-06T08:36:04;6.50;;;3.40;;
47429;SDS011;33181;49.246;7.372;2022-07-06T08:38:30;4.60;;;2.83;;
47429;SDS011;33181;49.246;7.372;2022-07-06T08:40:56;4.23;;;2.97;;
47429;SDS011;33181;49.246;7.372;2022-07-06T08:43:23;9.10;;;3.10;;
47429;SDS011;33181;49.246;7.372;2022-07-06T08:45:49;2.93;;;2.63;;
47429;SDS011;33181;49.246;7.372;2022-07-06T08:48:18;5.17;;;2.97;;
47429;SDS011;33181;49.246;7.372;2022-07-06T08:50:47;6.03;;;2.70;;
47429;SDS011;33181;49.246;7.372;2022-07-06T08:53:14;5.90;;;3.23;;
47429;SDS011;33181;49.246;7.372;2022-07-06T08:55:45;7.53;;;3.20;;
47429;SDS011;33181;49.246;7.372;2022-07-06T08:58:12;6.17;;;2.40;;
47429;SDS011;33181;49.246;7.372;2022-07-06T09:00:38;4.83;;;2.60;;
47429;SDS011;33181;49.246;7.372;2022-07-06T09:03:05;4.00;;;2.80;;
47429;SDS011;33181;49.246;7.372;2022-07-06T09:05:36;8.97;;;2.87;;
47429;SDS011;33181;49.246;7.372;2022-07-06T09:08:03;4.60;;;2.50;;
47429;SDS011;33181;49.246;7.372;2022-07-06T09:10:29;6.57;;;2.70;;
47429;SDS011;33181;49.246;7.372;2022-07-06T09:13:02;5.40;;;2.43;;
47429;SDS011;33181;49.246;7.372;2022-07-06T09:15:30;6.33;;;2.80;;
47429;SDS011;33181;49.246;7.372;2022-07-06T09:17:56;3.97;;;2.30;;
47429;SDS011;33181;49.246;7.372;2022-07-06T09:20:22;5.63;;;2.70;;
47429;SDS011;33181;49.246;7.372;2022-07-06T09:22:49;4.00;;;2.27;;
47429;SDS011;33181;49.246;7.372;2022-07-06T09:25:16;3.60;;;2.10;;
47429;SDS011;33181;49.246;7.372;2022-07-06T09:27:46;5.70;;;2.50;;
47429;SDS011;33181;49.246;7.372;2022-07-06T09:30:15;2.57;;;1.90;;
47429;SDS011;33181;49.246;7.372;2022-07-06T09:32:42;2.93;;;2.20;;
47429;SDS011;33181;49.246;7.372;2022-07-06T09:35:21;3.03;;;1.93;;
47429;SDS011;33181;49.246;7.372;2022-07-06T09:38:13;2.10;;;1.80;;
47429;SDS011;33181;49.246;7.372;2022-07-06T09:40:39;5.43;;;2.23;;
47429;SDS011;33181;49.246;7.372;2022-07-06T09:43:11;3.70;;;2.37;;
47429;SDS011;33181;49.246;7.372;2022-07-06T09:45:44;3.30;;;2.10;;
47429;SDS011;33181;49.246;7.372;2022-07-06T09:48:21;3.67;;;2.17;;
47429;SDS011;33181;49.246;7.372;2022-07-06T09:50:53;6.57;;;2.00;;
47429;SDS011;33181;49.246;7.372;2022-07-06T09:53:21;4.30;;;2.27;;
47429;SDS011;33181;49.246;7.372;2022-07-06T09:55:53;5.47;;;2.30;;
47429;SDS011;33181;49.246;7.372;2022-07-06T09:58:21;5.70;;;2.57;;
47429;SDS011;33181;49.246;7.372;2022-07-06T10:00:48;2.43;;;2.23;;
47429;SDS011;33181;49.246;7.372;2022-07-06T10:03:15;3.13;;;2.10;;
47429;SDS011;33181;49.246;7.372;2022-07-06T10:05:43;15.73;;;2.60;;
47429;SDS011;33181;49.246;7.372;2022-07-06T10:08:15;4.93;;;2.60;;
47429;SDS011;33181;49.246;7.372;2022-07-06T10:10:42;3.60;;;2.43;;
47429;SDS011;33181;49.246;7.372;2022-07-06T10:13:09;4.90;;;2.30;;
47429;SDS011;33181;49.246;7.372;2022-07-06T10:15:37;3.07;;;2.43;;
47429;SDS011;33181;49.246;7.372;2022-07-06T10:18:06;3.33;;;2.30;;
47429;SDS011;33181;49.246;7.372;2022-07-06T10:20:35;2.90;;;2.20;;
47429;SDS011;33181;49.246;7.372;2022-07-06T10:23:04;3.30;;;2.40;;
47429;SDS011;33181;49.246;7.372;2022-07-06T10:25:32;6.13;;;3.83;;
47429;SDS011;33181;49.246;7.372;2022-07-06T10:27:59;6.50;;;2.70;;
47429;SDS011;33181;49.246;7.372;2022-07-06T10:30:26;3.77;;;2.53;;
47429;SDS011;33181;49.246;7.372;2022-07-06T10:32:54;6.93;;;2.60;;
47429;SDS011;33181;49.246;7.372;2022-07-06T10:35:23;5.57;;;3.27;;
47429;SDS011;33181;49.246;7.372;2022-07-06T10:38:05;5.97;;;3.00;;
47429;SDS011;33181;49.246;7.372;2022-07-06T10:40:34;3.27;;;2.57;;
47429;SDS011;33181;49.246;7.372;2022-07-06T10:43:21;3.10;;;2.07;;
47429;SDS011;33181;49.246;7.372;2022-07-06T10:50:49;11.23;;;2.60;;
47429;SDS011;33181;49.246;7.372;2022-07-06T10:53:26;3.67;;;2.40;;
47429;SDS011;33181;49.246;7.372;2022-07-06T10:55:57;6.43;;;2.50;;
47429;SDS011;33181;49.246;7.372;2022-07-06T10:58:36;6.40;;;2.27;;
47429;SDS011;33181;49.246;7.372;2022-07-06T11:01:06;9.47;;;2.63;;
47429;SDS011;33181;49.246;7.372;2022-07-06T11:03:34;6.47;;;2.20;;
47429;SDS011;33181;49.246;7.372;2022-07-06T11:06:17;6.10;;;3.00;;
47429;SDS011;33181;49.246;7.372;2022-07-06T11:08:55;6.97;;;3.10;;
47429;SDS011;33181;49.246;7.372;2022-07-06T11:14:06;4.30;;;2.50;;
47429;SDS011;33181;49.246;7.372;2022-07-06T11:19:24;6.20;;;2.50;;
47429;SDS011;33181;49.246;7.372;2022-07-06T11:21:51;3.50;;;2.20;;
47429;SDS011;33181;49.246;7.372;2022-07-06T11:24:29;3.20;;;2.27;;
47429;SDS011;33181;49.246;7.372;2022-07-06T11:26:58;3.83;;;2.53;;
47429;SDS011;33181;49.246;7.372;2022-07-06T11:29:25;3.37;;;2.17;;
47429;SDS011;33181;49.246;7.372;2022-07-06T11:31:57;5.97;;;2.43;;
47429;SDS011;33181;49.246;7.372;2022-07-06T11:34:29;3.97;;;2.20;;
47429;SDS011;33181;49.246;7.372;2022-07-06T11:36:57;3.60;;;2.03;;
47429;SDS011;33181;49.246;7.372;2022-07-06T11:39:31;6.73;;;2.43;;
47429;SDS011;33181;49.246;7.372;2022-07-06T11:41:59;2.93;;;2.30;;
47429;SDS011;33181;49.246;7.372;2022-07-06T11:44:28;2.40;;;2.13;;
47429;SDS011;33181;49.246;7.372;2022-07-06T11:46:55;5.57;;;2.10;;
47429;SDS011;33181;49.246;7.372;2022-07-06T11:49:27;4.67;;;2.23;;
47429;SDS011;33181;49.246;7.372;2022-07-06T11:51:53;7.33;;;2.50;;
47429;SDS011;33181;49.246;7.372;2022-07-06T11:54:20;2.77;;;1.90;;
47429;SDS011;33181;49.246;7.372;2022-07-06T11:56:49;5.33;;;2.50;;
47429;SDS011;33181;49.246;7.372;2022-07-06T11:59:28;2.70;;;1.80;;
47429;SDS011;33181;49.246;7.372;2022-07-06T12:04:34;2.50;;;2.10;;
47429;SDS011;33181;49.246;7.372;2022-07-06T12:07:03;3.77;;;2.03;;
47429;SDS011;33181;49.246;7.372;2022-07-06T12:09:36;4.17;;;2.20;;
47429;SDS011;33181;49.246;7.372;2022-07-06T12:12:04;7.23;;;2.40;;
47429;SDS011;33181;49.246;7.372;2022-07-06T12:14:31;3.30;;;2.30;;
47429;SDS011;33181;49.246;7.372;2022-07-06T12:17:03;2.87;;;2.37;;
47429;SDS011;33181;49.246;7.372;2022-07-06T12:19:32;3.87;;;2.37;;
47429;SDS011;33181;49.246;7.372;2022-07-06T12:21:59;3.53;;;2.43;;
47429;SDS011;33181;49.246;7.372;2022-07-06T12:24:27;3.50;;;2.60;;
47429;SDS011;33181;49.246;7.372;2022-07-06T12:26:56;2.40;;;2.10;;
47429;SDS011;33181;49.246;7.372;2022-07-06T12:29:23;3.20;;;2.40;;
47429;SDS011;33181;49.246;7.372;2022-07-06T12:34:25;5.83;;;2.40;;
47429;SDS011;33181;49.246;7.372;2022-07-06T12:36:54;2.50;;;2.10;;
47429;SDS011;33181;49.246;7.372;2022-07-06T12:39:25;3.20;;;2.27;;
47429;SDS011;33181;49.246;7.372;2022-07-06T12:41:54;5.97;;;2.40;;
47429;SDS011;33181;49.246;7.372;2022-07-06T12:44:26;3.27;;;2.20;;
47429;SDS011;33181;49.246;7.372;2022-07-06T12:47:02;3.50;;;2.37;;
47429;SDS011;33181;49.246;7.372;2022-07-06T12:49:30;4.90;;;2.40;;
47429;SDS011;33181;49.246;7.372;2022-07-06T12:51:58;5.40;;;2.33;;
47429;SDS011;33181;49.246;7.372;2022-07-06T12:54:32;3.63;;;2.67;;
47429;SDS011;33181;49.246;7.372;2022-07-06T12:59:34;3.50;;;2.20;;
47429;SDS011;33181;49.246;7.372;2022-07-06T13:02:04;3.93;;;2.10;;
47429;SDS011;33181;49.246;7.372;2022-07-06T13:04:32;2.93;;;2.10;;
47429;SDS011;33181;49.246;7.372;2022-07-06T13:06:59;5.10;;;2.73;;
47429;SDS011;33181;49.246;7.372;2022-07-06T13:09:26;3.40;;;2.47;;
47429;SDS011;33181;49.246;7.372;2022-07-06T13:11:53;4.43;;;2.40;;
47429;SDS011;33181;49.246;7.372;2022-07-06T13:14:19;3.80;;;2.23;;
47429;SDS011;33181;49.246;7.372;2022-07-06T13:16:45;2.47;;;2.20;;
47429;SDS011;33181;49.246;7.372;2022-07-06T13:19:12;4.37;;;2.17;;
47429;SDS011;33181;49.246;7.372;2022-07-06T13:21:39;3.40;;;2.40;;
47429;SDS011;33181;49.246;7.372;2022-07-06T13:24:05;5.33;;;2.30;;
47429;SDS011;33181;49.246;7.372;2022-07-06T13:26:31;2.50;;;2.20;;
47429;SDS011;33181;49.246;7.372;2022-07-06T13:28:59;3.13;;;2.10;;
47429;SDS011;33181;49.246;7.372;2022-07-06T13:31:26;2.80;;;2.20;;
47429;SDS011;33181;49.246;7.372;2022-07-06T13:33:53;5.00;;;2.00;;
47429;SDS011;33181;49.246;7.372;2022-07-06T13:36:19;3.30;;;2.10;;
47429;SDS011;33181;49.246;7.372;2022-07-06T13:38:45;3.67;;;2.27;;
47429;SDS011;33181;49.246;7.372;2022-07-06T13:41:11;5.47;;;2.63;;
47429;SDS011;33181;49.246;7.372;2022-07-06T13:43:36;3.50;;;2.40;;
47429;SDS011;33181;49.246;7.372;2022-07-06T13:46:06;3.60;;;2.00;;
47429;SDS011;33181;49.246;7.372;2022-07-06T13:48:33;2.50;;;2.00;;
47429;SDS011;33181;49.246;7.372;2022-07-06T13:50:59;5.37;;;2.30;;
47429;SDS011;33181;49.246;7.372;2022-07-06T13:53:25;2.93;;;2.03;;
47429;SDS011;33181;49.246;7.372;2022-07-06T13:55:51;3.00;;;2.20;;
47429;SDS011;33181;49.246;7.372;2022-07-06T13:58:18;2.23;;;2.03;;
47429;SDS011;33181;49.246;7.372;2022-07-06T14:00:45;3.13;;;2.27;;
47429;SDS011;33181;49.246;7.372;2022-07-06T14:03:10;5.43;;;2.20;;
47429;SDS011;33181;49.246;7.372;2022-07-06T14:05:37;2.63;;;2.10;;
47429;SDS011;33181;49.246;7.372;2022-07-06T14:08:03;2.30;;;1.80;;
47429;SDS011;33181;49.246;7.372;2022-07-06T14:10:29;2.60;;;1.90;;
47429;SDS011;33181;49.246;7.372;2022-07-06T14:12:55;2.63;;;2.00;;
47429;SDS011;33181;49.246;7.372;2022-07-06T14:15:21;3.30;;;2.17;;
47429;SDS011;33181;49.246;7.372;2022-07-06T14:17:47;4.33;;;2.00;;
47429;SDS011;33181;49.246;7.372;2022-07-06T14:20:14;3.57;;;2.30;;
47429;SDS011;33181;49.246;7.372;2022-07-06T14:22:40;4.80;;;2.10;;
47429;SDS011;33181;49.246;7.372;2022-07-06T14:25:07;3.33;;;2.20;;
47429;SDS011;33181;49.246;7.372;2022-07-06T14:27:34;7.43;;;2.40;;
47429;SDS011;33181;49.246;7.372;2022-07-06T14:30:00;2.93;;;1.83;;
47429;SDS011;33181;49.246;7.372;2022-07-06T14:32:26;3.17;;;2.00;;
47429;SDS011;33181;49.246;7.372;2022-07-06T14:34:52;4.93;;;2.17;;
47429;SDS011;33181;49.246;7.372;2022-07-06T14:37:18;4.30;;;2.20;;
47429;SDS011;33181;49.246;7.372;2022-07-06T14:39:43;3.13;;;2.00;;
47429;SDS011;33181;49.246;7.372;2022-07-06T14:42:11;3.43;;;2.30;;
47429;SDS011;33181;49.246;7.372;2022-07-06T14:44:38;3.87;;;2.20;;
47429;SDS011;33181;49.246;7.372;2022-07-06T14:47:04;3.13;;;2.13;;
47429;SDS011;33181;49.246;7.372;2022-07-06T14:49:31;3.60;;;1.87;;
47429;SDS011;33181;49.246;7.372;2022-07-06T14:51:57;8.33;;;2.03;;
47429;SDS011;33181;49.246;7.372;2022-07-06T14:54:23;2.43;;;1.90;;
47429;SDS011;33181;49.246;7.372;2022-07-06T14:56:50;7.73;;;2.10;;
47429;SDS011;33181;49.246;7.372;2022-07-06T14:59:16;5.00;;;2.20;;
47429;SDS011;33181;49.246;7.372;2022-07-06T15:01:43;2.57;;;1.83;;
47429;SDS011;33181;49.246;7.372;2022-07-06T15:04:09;3.40;;;1.90;;
47429;SDS011;33181;49.246;7.372;2022-07-06T15:06:35;2.73;;;1.90;;